Pagina principale
METAR-TAF:

METAR-TAF

Aeroporti :

Kassel, Germania

latitudine: 51-24N, longitudine: 009-23E, altezza: 277 m

Osservazione

Il bollettino è stato emesso 23 minuti fa, alle 15:50 UTC
Vento 6 kt da nord-est, variando fra nord e est
Temperature 19°C
Umidità 43%
Pressione 1022 hPa
Visibilità 10 km o più
nessuna nube inferiore a 1500 m e nessun cumulonembo

METAR: EDVK 311550Z 05006KT 010V090 CAVOK 19/06 Q1022

Ora: 18:13 (16:13 UTC)

Previsione

Il bollettino è stato emesso 2 ore e 13 minuti fa, alle 14:00 UTC
Previsione valida dal 31 alle 15 UTC al 31 alle 24 UTC
Vento 7 kt da est/nord-est
Visibilità 10 km o più
nessuna nube inferiore a 1500 m e nessun cumulonembo
Evoluzione graduale
dal 31 alle 17 UTC al 31 alle 19 UTC
Vento 4 kt da nord

TAF: EDVK 311400Z 3115/3124 06007KT CAVOK BECMG 3117/3119 36004KT

Osservazioni e previsioni meteorologiche di più di 4000 aeroporti (messaggi METAR e TAF).

Le stazioni disponibili sono rappresentate dai dischi gialli e rossi sulla carta.

Puntare il mouse per vedere il nome della stazione.

Clicca sopra per visualizzare le osservazioni e previsioni meteorologiche.

Per cambiare la mappa : fare clic sui pulsanti verdi con una croce nera per ingrandire, il pulsante verde con un trattino per diminuire, o sulla freccia verde per le mappe adiacenti.


METAR-TAF: